Time,TemperatureF,DewpointF,PressureIn,WindDirection,WindDirectionDegrees,WindSpeedMPH,WindSpeedGustMPH,Humidity,HourlyPrecipIn,Conditions,Clouds,dailyrainin,SoftwareType,DateUTC
2013-09-26 00:06:00,60.3,55.0,29.13,ESE,122,0.0,2.0,82,0.00,,,0.00,weatherlink.com 1.10,2013-09-26 05:06:00,
2013-09-26 00:21:00,60.1,55.0,29.13,SSE,156,0.0,2.0,82,0.00,,,0.00,weatherlink.com 1.10,2013-09-26 05:21:00,
2013-09-26 00:37:00,59.9,55.0,29.13,NE,50,0.0,3.0,83,0.00,,,0.00,weatherlink.com 1.10,2013-09-26 05:37:00,
2013-09-26 00:52:00,59.9,55.0,29.13,WSW,251,1.0,4.0,83,0.00,,,0.00,weatherlink.com 1.10,2013-09-26 05:52:00,
2013-09-26 01:07:00,59.9,55.0,29.13,NNE,23,0.0,3.0,83,0.00,,,0.00,weatherlink.com 1.10,2013-09-26 06:07:00,
2013-09-26 01:22:00,59.9,55.0,29.14,WSW,238,1.0,4.0,83,0.00,,,0.00,weatherlink.com 1.10,2013-09-26 06:22:00,
2013-09-26 01:37:00,59.9,55.0,29.14,SE,145,1.0,3.0,83,0.00,,,0.00,weatherlink.com 1.10,2013-09-26 06:37:00,
2013-09-26 01:52:00,59.8,55.0,29.14,NE,54,0.0,2.0,83,0.00,,,0.00,weatherlink.com 1.10,2013-09-26 06:52:00,
2013-09-26 02:07:00,59.6,55.0,29.14,East,91,1.0,4.0,84,0.00,,,0.00,weatherlink.com 1.10,2013-09-26 07:07:00,
2013-09-26 02:22:00,59.5,55.0,29.14,NW,304,0.0,3.0,84,0.00,,,0.00,weatherlink.com 1.10,2013-09-26 07:22:00,
2013-09-26 02:37:00,59.3,55.0,29.14,SW,229,1.0,2.0,84,0.00,,,0.00,weatherlink.com 1.10,2013-09-26 07:37:00,
2013-09-26 02:52:00,59.1,54.0,29.14,West,269,0.0,1.0,84,0.00,,,0.00,weatherlink.com 1.10,2013-09-26 07:52:00,
2013-09-26 03:07:00,58.8,54.0,29.14,NE,56,0.0,3.0,84,0.00,,,0.00,weatherlink.com 1.10,2013-09-26 08:07:00,
2013-09-26 03:22:00,58.7,54.0,29.14,South,183,0.0,3.0,85,0.00,,,0.00,weatherlink.com 1.10,2013-09-26 08:22:00,
2013-09-26 03:37:00,58.5,54.0,29.13,NNE,12,0.0,2.0,85,0.00,,,0.00,weatherlink.com 1.10,2013-09-26 08:37:00,
2013-09-26 03:52:00,58.5,54.0,29.13,South,191,0.0,3.0,85,0.00,,,0.00,weatherlink.com 1.10,2013-09-26 08:52:00,
2013-09-26 04:07:00,58.5,54.0,29.13,East,98,3.0,5.0,85,0.00,,,0.00,weatherlink.com 1.10,2013-09-26 09:07:00,
2013-09-26 04:22:00,58.5,54.0,29.12,SE,137,2.0,6.0,84,0.00,,,0.00,weatherlink.com 1.10,2013-09-26 09:22:00,
2013-09-26 04:37:00,58.4,54.0,29.13,NNE,23,0.0,4.0,84,0.00,,,0.00,weatherlink.com 1.10,2013-09-26 09:37:00,
2013-09-26 04:52:00,58.2,53.0,29.13,NNW,335,1.0,5.0,84,0.00,,,0.00,weatherlink.com 1.10,2013-09-26 09:52:00,
2013-09-26 05:07:00,57.9,54.0,29.13,ESE,119,0.0,4.0,85,0.00,,,0.00,weatherlink.com 1.10,2013-09-26 10:07:00,
2013-09-26 05:22:00,57.8,53.0,29.13,SW,215,0.0,3.0,85,0.00,,,0.00,weatherlink.com 1.10,2013-09-26 10:22:00,
2013-09-26 05:37:00,57.6,53.0,29.13,SW,214,0.0,3.0,85,0.00,,,0.00,weatherlink.com 1.10,2013-09-26 10:37:00,
2013-09-26 05:52:00,57.4,53.0,29.13,ENE,58,1.0,4.0,85,0.00,,,0.00,weatherlink.com 1.10,2013-09-26 10:52:00,
2013-09-26 06:07:00,57.2,53.0,29.13,South,187,3.0,4.0,85,0.00,,,0.00,weatherlink.com 1.10,2013-09-26 11:07:00,
2013-09-26 06:22:00,57.0,53.0,29.13,ESE,116,1.0,4.0,85,0.00,,,0.00,weatherlink.com 1.10,2013-09-26 11:22:00,
2013-09-26 06:37:00,56.9,53.0,29.14,NE,34,0.0,2.0,85,0.00,,,0.00,weatherlink.com 1.10,2013-09-26 11:37:00,
2013-09-26 06:52:00,56.7,52.0,29.14,SSW,202,0.0,2.0,85,0.00,,,0.00,weatherlink.com 1.10,2013-09-26 11:52:00,
2013-09-26 07:07:00,56.8,52.0,29.15,SSE,156,0.0,3.0,85,0.00,,,0.00,weatherlink.com 1.10,2013-09-26 12:07:00,
2013-09-26 07:22:00,56.6,52.0,29.15,NNE,20,0.0,2.0,85,0.00,,,0.00,weatherlink.com 1.10,2013-09-26 12:22:00,
2013-09-26 07:37:00,56.6,52.0,29.14,NE,34,1.0,4.0,85,0.00,,,0.00,weatherlink.com 1.10,2013-09-26 12:37:00,
2013-09-26 07:52:00,56.9,52.0,29.15,West,262,1.0,3.0,84,0.00,,,0.00,weatherlink.com 1.10,2013-09-26 12:52:00,
2013-09-26 08:07:00,57.4,53.0,29.15,SSE,164,0.0,1.0,84,0.00,,,0.00,weatherlink.com 1.10,2013-09-26 13:07:00,
2013-09-26 08:22:00,57.8,53.0,29.15,ENE,64,1.0,5.0,83,0.00,,,0.00,weatherlink.com 1.10,2013-09-26 13:22:00,
2013-09-26 08:37:00,58.5,53.0,29.16,South,177,0.0,2.0,82,0.00,,,0.00,weatherlink.com 1.10,2013-09-26 13:37:00,
2013-09-26 08:52:00,59.2,53.0,29.16,SSE,149,0.0,4.0,80,0.00,,,0.00,weatherlink.com 1.10,2013-09-26 13:52:00,
2013-09-26 09:07:00,60.1,53.0,29.16,East,91,3.0,4.0,78,0.00,,,0.00,weatherlink.com 1.10,2013-09-26 14:07:00,
2013-09-26 09:22:00,61.0,54.0,29.16,NE,51,0.0,5.0,77,0.00,,,0.00,weatherlink.com 1.10,2013-09-26 14:22:00,
2013-09-26 09:37:00,62.2,54.0,29.16,SSE,160,0.0,4.0,75,0.00,,,0.00,weatherlink.com 1.10,2013-09-26 14:37:00,
2013-09-26 09:52:00,63.4,55.0,29.16,South,183,0.0,5.0,73,0.00,,,0.00,weatherlink.com 1.10,2013-09-26 14:52:00,
2013-09-26 10:07:00,65.1,55.0,29.15,East,85,6.0,7.0,69,0.00,,,0.00,weatherlink.com 1.10,2013-09-26 15:07:00,
2013-09-26 10:22:00,66.6,55.0,29.15,SW,233,1.0,9.0,67,0.00,,,0.00,weatherlink.com 1.10,2013-09-26 15:22:00,
2013-09-26 10:38:00,68.0,56.0,29.15,North,11,1.0,6.0,65,0.00,,,0.00,weatherlink.com 1.10,2013-09-26 15:38:00,
2013-09-26 10:53:00,69.1,56.0,29.15,NNE,23,1.0,6.0,64,0.00,,,0.00,weatherlink.com 1.10,2013-09-26 15:53:00,
2013-09-26 11:08:00,70.0,56.0,29.14,North,6,2.0,7.0,61,0.00,,,0.00,weatherlink.com 1.10,2013-09-26 16:08:00,
2013-09-26 11:23:00,71.4,58.0,29.14,NNE,17,1.0,5.0,62,0.00,,,0.00,weatherlink.com 1.10,2013-09-26 16:23:00,
2013-09-26 11:38:00,72.4,57.0,29.14,West,266,0.0,6.0,59,0.00,,,0.00,weatherlink.com 1.10,2013-09-26 16:38:00,
2013-09-26 11:53:00,73.4,58.0,29.14,NW,304,2.0,7.0,59,0.00,,,0.00,weatherlink.com 1.10,2013-09-26 16:53:00,
2013-09-26 12:08:00,74.1,58.0,29.13,NNW,328,1.0,7.0,58,0.00,,,0.00,weatherlink.com 1.10,2013-09-26 17:08:00,
2013-09-26 12:23:00,75.5,59.0,29.12,ENE,77,0.0,4.0,57,0.00,,,0.00,weatherlink.com 1.10,2013-09-26 17:23:00,
2013-09-26 12:38:00,76.3,59.0,29.12,NE,39,3.0,4.0,56,0.00,,,0.00,weatherlink.com 1.10,2013-09-26 17:38:00,
2013-09-26 12:53:00,76.8,60.0,29.12,NW,316,3.0,12.0,56,0.00,,,0.00,weatherlink.com 1.10,2013-09-26 17:53:00,
2013-09-26 13:08:00,77.5,60.0,29.11,East,83,6.0,9.0,55,0.00,,,0.00,weatherlink.com 1.10,2013-09-26 18:08:00,
2013-09-26 13:23:00,77.8,60.0,29.10,SE,127,3.0,11.0,55,0.00,,,0.00,weatherlink.com 1.10,2013-09-26 18:23:00,
2013-09-26 13:38:00,78.8,61.0,29.10,ESE,107,1.0,8.0,54,0.00,,,0.00,weatherlink.com 1.10,2013-09-26 18:38:00,
2013-09-26 13:53:00,79.8,61.0,29.09,SW,229,3.0,10.0,53,0.00,,,0.00,weatherlink.com 1.10,2013-09-26 18:53:00,
2013-09-26 14:08:00,80.3,61.0,29.09,ESE,110,2.0,7.0,52,0.00,,,0.00,weatherlink.com 1.10,2013-09-26 19:08:00,
2013-09-26 14:23:00,80.7,61.0,29.08,WSW,256,1.0,9.0,52,0.00,,,0.00,weatherlink.com 1.10,2013-09-26 19:23:00,
2013-09-26 14:38:00,81.1,62.0,29.08,ESE,103,2.0,11.0,52,0.00,,,0.00,weatherlink.com 1.10,2013-09-26 19:38:00,
2013-09-26 14:53:00,81.9,62.0,29.07,SSE,159,1.0,9.0,51,0.00,,,0.00,weatherlink.com 1.10,2013-09-26 19:53:00,
2013-09-26 15:08:00,81.9,61.0,29.07,NNW,332,3.0,10.0,50,0.00,,,0.00,weatherlink.com 1.10,2013-09-26 20:08:00,
2013-09-26 15:24:00,82.1,62.0,29.07,ESE,120,3.0,10.0,50,0.00,,,0.00,weatherlink.com 1.10,2013-09-26 20:24:00,
2013-09-26 15:39:00,82.3,61.0,29.06,SW,221,1.0,11.0,49,0.00,,,0.00,weatherlink.com 1.10,2013-09-26 20:39:00,
2013-09-26 15:54:00,82.6,61.0,29.05,WSW,255,2.0,21.0,49,0.00,,,0.00,weatherlink.com 1.10,2013-09-26 20:54:00,
2013-09-26 16:09:00,83.2,62.0,29.05,South,188,4.0,9.0,49,0.00,,,0.00,weatherlink.com 1.10,2013-09-26 21:09:00,
2013-09-26 16:24:00,82.7,62.0,29.05,SSE,162,3.0,10.0,49,0.00,,,0.00,weatherlink.com 1.10,2013-09-26 21:24:00,
2013-09-26 16:39:00,82.7,62.0,29.05,WNW,284,2.0,9.0,49,0.00,,,0.00,weatherlink.com 1.10,2013-09-26 21:39:00,
2013-09-26 16:54:00,82.7,62.0,29.06,NW,305,5.0,9.0,49,0.00,,,0.00,weatherlink.com 1.10,2013-09-26 21:54:00,
2013-09-26 17:09:00,82.3,61.0,29.05,South,190,5.0,11.0,49,0.00,,,0.00,weatherlink.com 1.10,2013-09-26 22:09:00,
2013-09-26 17:24:00,81.6,61.0,29.05,South,180,3.0,11.0,50,0.00,,,0.00,weatherlink.com 1.10,2013-09-26 22:24:00,
2013-09-26 17:39:00,81.2,62.0,29.05,SE,134,4.0,11.0,52,0.00,,,0.00,weatherlink.com 1.10,2013-09-26 22:39:00,
2013-09-26 17:54:00,80.7,61.0,29.05,South,176,4.0,14.0,52,0.00,,,0.00,weatherlink.com 1.10,2013-09-26 22:54:00,
2013-09-26 18:09:00,80.3,61.0,29.05,ESE,117,1.0,7.0,52,0.00,,,0.00,weatherlink.com 1.10,2013-09-26 23:09:00,
2013-09-26 18:24:00,79.9,61.0,29.05,SW,214,4.0,6.0,53,0.00,,,0.00,weatherlink.com 1.10,2013-09-26 23:24:00,
2013-09-26 18:39:00,79.3,61.0,29.05,SSE,158,6.0,8.0,54,0.00,,,0.00,weatherlink.com 1.10,2013-09-26 23:39:00,
2013-09-26 18:54:00,78.6,62.0,29.05,South,181,1.0,8.0,56,0.00,,,0.00,weatherlink.com 1.10,2013-09-26 23:54:00,
2013-09-26 19:24:00,76.5,63.0,29.06,SE,135,0.0,4.0,63,0.00,,,0.00,weatherlink.com 1.10,2013-09-27 00:24:00,
2013-09-26 19:39:00,75.7,63.0,29.05,South,183,1.0,7.0,64,0.00,,,0.00,weatherlink.com 1.10,2013-09-27 00:39:00,
2013-09-26 19:54:00,75.4,63.0,29.06,South,191,2.0,8.0,65,0.00,,,0.00,weatherlink.com 1.10,2013-09-27 00:54:00,
2013-09-26 20:09:00,74.8,63.0,29.06,SSE,152,1.0,7.0,66,0.00,,,0.00,weatherlink.com 1.10,2013-09-27 01:09:00,
2013-09-26 20:24:00,74.4,63.0,29.07,WSW,238,2.0,6.0,67,0.00,,,0.00,weatherlink.com 1.10,2013-09-27 01:24:00,
2013-09-26 20:39:00,73.9,63.0,29.07,SSE,155,2.0,6.0,68,0.00,,,0.00,weatherlink.com 1.10,2013-09-27 01:39:00,
2013-09-26 20:54:00,73.5,62.0,29.07,SE,136,1.0,8.0,68,0.00,,,0.00,weatherlink.com 1.10,2013-09-27 01:54:00,
2013-09-26 21:09:00,73.2,62.0,29.08,SE,143,2.0,5.0,69,0.00,,,0.00,weatherlink.com 1.10,2013-09-27 02:09:00,
2013-09-26 21:24:00,72.9,62.0,29.08,SE,144,2.0,6.0,69,0.00,,,0.00,weatherlink.com 1.10,2013-09-27 02:24:00,
2013-09-26 21:39:00,72.6,62.0,29.09,SSW,207,1.0,5.0,70,0.00,,,0.00,weatherlink.com 1.10,2013-09-27 02:39:00,
2013-09-26 21:54:00,72.2,62.0,29.09,SSE,149,0.0,4.0,70,0.00,,,0.00,weatherlink.com 1.10,2013-09-27 02:54:00,
2013-09-26 22:09:00,71.7,62.0,29.10,West,271,3.0,6.0,71,0.00,,,0.00,weatherlink.com 1.10,2013-09-27 03:09:00,
2013-09-26 22:24:00,71.4,62.0,29.10,SSE,149,2.0,4.0,72,0.00,,,0.00,weatherlink.com 1.10,2013-09-27 03:24:00,
2013-09-26 22:39:00,71.0,62.0,29.10,ESE,119,1.0,4.0,72,0.00,,,0.00,weatherlink.com 1.10,2013-09-27 03:39:00,
2013-09-26 22:54:00,70.8,62.0,29.11,NNW,338,0.0,4.0,73,0.00,,,0.00,weatherlink.com 1.10,2013-09-27 03:54:00,
2013-09-26 23:09:00,70.6,62.0,29.11,South,174,0.0,5.0,73,0.00,,,0.00,weatherlink.com 1.10,2013-09-27 04:09:00,
2013-09-26 23:24:00,70.3,61.0,29.11,SE,139,0.0,6.0,73,0.00,,,0.00,weatherlink.com 1.10,2013-09-27 04:24:00,
2013-09-26 23:39:00,69.9,61.0,29.13,NNE,20,0.0,2.0,74,0.00,,,0.00,weatherlink.com 1.10,2013-09-27 04:39:00,
2013-09-26 23:54:00,69.3,61.0,29.13,NE,36,0.0,1.0,75,0.00,,,0.00,weatherlink.com 1.10,2013-09-27 04:54:00,